Time;durP1;ratioP1;P1;durP2;ratioP2;P2;SDS_P1;SDS_P2;PMS_P1;PMS_P2;Temp;Humidity;BMP_temperature;BMP_pressure;BME280_temperature;BME280_humidity;BME280_pressure;Samples;Min_cycle;Max_cycle;Signal;HPM_P1;HPM_P2
2024/01/27 00:01:56;;;;;;;1.47;1.20;;;;;;;;;;6193880;23;20698;-85
2024/01/27 00:04:22;;;;;;;1.63;1.53;;;;;;;;;;6191591;23;20473;-86
2024/01/27 00:06:48;;;;;;;2.97;1.60;;;;;;;;;;6192066;23;20889;-85
2024/01/27 00:09:14;;;;;;;1.60;1.50;;;;;;;;;;6191254;23;21165;-85
2024/01/27 00:11:40;;;;;;;2.77;1.63;;;;;;;;;;6193606;23;20414;-87
2024/01/27 00:14:06;;;;;;;1.70;1.60;;;;;;;;;;6193763;23;20376;-85
2024/01/27 00:16:32;;;;;;;6.10;2.33;;;;;;;;;;6220528;23;20373;-86
2024/01/27 00:18:58;;;;;;;1.80;1.70;;;;;;;;;;6194078;23;20433;-86
2024/01/27 00:21:24;;;;;;;2.70;1.40;;;;;;;;;;6193889;23;20379;-85
2024/01/27 00:23:50;;;;;;;1.97;1.50;;;;;;;;;;6217874;23;20458;-87
2024/01/27 00:26:16;;;;;;;1.47;1.37;;;;;;;;;;6194034;23;20858;-86
2024/01/27 00:28:42;;;;;;;2.33;1.70;;;;;;;;;;6194713;23;20957;-86
2024/01/27 00:31:08;;;;;;;2.20;1.70;;;;;;;;;;6192735;23;20409;-87
2024/01/27 00:33:36;;;;;;;1.30;1.20;;;;;;;;;;6221215;23;20363;-86
2024/01/27 00:36:03;;;;;;;3.43;2.00;;;;;;;;;;6189613;23;20386;-86
2024/01/27 00:38:29;;;;;;;1.83;1.60;;;;;;;;;;6192806;23;20437;-87
2024/01/27 00:40:55;;;;;;;2.40;1.23;;;;;;;;;;6190165;23;20802;-86
2024/01/27 00:43:21;;;;;;;5.53;2.27;;;;;;;;;;6192376;23;20410;-86
2024/01/27 00:45:48;;;;;;;1.77;1.40;;;;;;;;;;6190579;23;20399;-87
2024/01/27 00:48:14;;;;;;;3.40;1.37;;;;;;;;;;6219584;23;20410;-85
2024/01/27 00:50:40;;;;;;;2.60;1.50;;;;;;;;;;6192391;23;20383;-86
2024/01/27 00:53:07;;;;;;;2.27;1.97;;;;;;;;;;6195685;23;20878;-85
2024/01/27 00:55:34;;;;;;;3.07;2.17;;;;;;;;;;6192526;23;20750;-86
2024/01/27 00:57:59;;;;;;;2.43;1.73;;;;;;;;;;6195509;23;20768;-85
2024/01/27 01:00:26;;;;;;;1.77;1.63;;;;;;;;;;6192605;23;20387;-86
2024/01/27 01:02:52;;;;;;;2.47;1.33;;;;;;;;;;6197205;23;20413;-86
2024/01/27 01:05:20;;;;;;;4.50;1.80;;;;;;;;;;6193982;23;20379;-86
2024/01/27 01:07:47;;;;;;;2.20;2.00;;;;;;;;;;6194670;23;20456;-86
2024/01/27 01:10:13;;;;;;;2.73;2.50;;;;;;;;;;6193709;23;20489;-87
2024/01/27 01:12:40;;;;;;;0.90;0.90;;;;;;;;;;6193302;23;20897;-86
2024/01/27 01:15:06;;;;;;;2.60;1.70;;;;;;;;;;6193213;23;20382;-87
2024/01/27 01:17:32;;;;;;;6.00;2.83;;;;;;;;;;6218385;23;20374;-85
2024/01/27 01:19:59;;;;;;;1.67;1.43;;;;;;;;;;6193983;23;20379;-86
2024/01/27 01:22:26;;;;;;;2.17;1.90;;;;;;;;;;6219153;23;20366;-85
2024/01/27 01:24:52;;;;;;;6.40;1.90;;;;;;;;;;6194942;23;20395;-86
2024/01/27 01:27:18;;;;;;;1.97;1.87;;;;;;;;;;6193723;23;20378;-87
2024/01/27 01:29:45;;;;;;;1.67;1.57;;;;;;;;;;6217685;23;20561;-85
2024/01/27 01:32:12;;;;;;;3.33;1.70;;;;;;;;;;6191930;23;20422;-85
2024/01/27 01:34:38;;;;;;;1.37;1.27;;;;;;;;;;6198994;23;20383;-85
2024/01/27 01:37:04;;;;;;;2.03;1.60;;;;;;;;;;6193648;23;20398;-84
2024/01/27 01:39:30;;;;;;;2.03;1.70;;;;;;;;;;6195287;23;20916;-85
2024/01/27 01:41:56;;;;;;;1.80;1.30;;;;;;;;;;6193457;23;20383;-86
2024/01/27 01:44:22;;;;;;;2.40;1.87;;;;;;;;;;6195801;23;20414;-86
2024/01/27 01:46:48;;;;;;;3.87;1.33;;;;;;;;;;6192144;23;20490;-87
2024/01/27 01:49:14;;;;;;;3.47;1.87;;;;;;;;;;6186990;23;20419;-86
2024/01/27 01:51:40;;;;;;;1.37;1.17;;;;;;;;;;6160211;23;20411;-86
2024/01/27 01:54:06;;;;;;;1.73;1.60;;;;;;;;;;6164269;23;20384;-87
2024/01/27 01:56:35;;;;;;;7.30;1.47;;;;;;;;;;6161124;23;20435;-86
2024/01/27 01:59:02;;;;;;;1.70;1.57;;;;;;;;;;6165138;23;20376;-85
2024/01/27 02:01:28;;;;;;;4.40;1.70;;;;;;;;;;6162064;23;20458;-85
2024/01/27 02:03:55;;;;;;;7.53;1.80;;;;;;;;;;6163671;23;20404;-87
2024/01/27 02:06:24;;;;;;;2.10;1.80;;;;;;;;;;6163793;23;20387;-86
2024/01/27 02:08:50;;;;;;;1.67;1.53;;;;;;;;;;6163079;23;20973;-87
2024/01/27 02:11:16;;;;;;;1.40;1.30;;;;;;;;;;6161543;23;20376;-86
2024/01/27 02:13:42;;;;;;;4.60;2.20;;;;;;;;;;6163549;23;20375;-86
2024/01/27 02:16:10;;;;;;;1.70;1.60;;;;;;;;;;6161807;23;21035;-86
2024/01/27 02:18:37;;;;;;;3.30;1.50;;;;;;;;;;6162840;23;20372;-84
2024/01/27 02:21:04;;;;;;;2.13;1.93;;;;;;;;;;6188431;23;20378;-86
2024/01/27 02:23:31;;;;;;;2.33;2.13;;;;;;;;;;6195395;23;20385;-87
2024/01/27 02:25:57;;;;;;;1.53;1.43;;;;;;;;;;6193003;23;20449;-87
2024/01/27 02:28:24;;;;;;;10.90;2.47;;;;;;;;;;6193821;23;20387;-87
2024/01/27 02:30:50;;;;;;;2.17;1.93;;;;;;;;;;6194216;23;20445;-85
2024/01/27 02:33:16;;;;;;;3.00;1.77;;;;;;;;;;6186601;23;20380;-86
2024/01/27 02:35:43;;;;;;;5.33;1.53;;;;;;;;;;6164701;23;20412;-86
2024/01/27 02:38:09;;;;;;;2.43;1.53;;;;;;;;;;6161338;23;20376;-85
2024/01/27 02:40:35;;;;;;;1.50;1.40;;;;;;;;;;6164217;23;20419;-86
2024/01/27 02:43:01;;;;;;;5.63;2.47;;;;;;;;;;6160934;23;20384;-86
2024/01/27 02:45:29;;;;;;;3.90;1.60;;;;;;;;;;6163759;23;20387;-86
2024/01/27 02:47:55;;;;;;;1.23;1.13;;;;;;;;;;6160793;23;20574;-86
2024/01/27 02:50:22;;;;;;;2.87;1.80;;;;;;;;;;6160942;23;20481;-87
2024/01/27 02:52:48;;;;;;;1.60;1.50;;;;;;;;;;6160956;23;20380;-87
2024/01/27 02:55:14;;;;;;;4.83;1.40;;;;;;;;;;6164946;23;20810;-87
2024/01/27 02:57:43;;;;;;;2.73;2.00;;;;;;;;;;6160375;23;20385;-86
2024/01/27 03:00:09;;;;;;;3.17;1.43;;;;;;;;;;6164504;23;20372;-86
2024/01/27 03:02:35;;;;;;;2.00;1.90;;;;;;;;;;6160902;23;20388;-86
2024/01/27 03:05:01;;;;;;;1.50;1.40;;;;;;;;;;6189419;23;20387;-86
2024/01/27 03:07:28;;;;;;;10.33;2.13;;;;;;;;;;6218420;23;20371;-86
2024/01/27 03:09:55;;;;;;;2.40;1.43;;;;;;;;;;6217568;23;20430;-86
2024/01/27 03:12:22;;;;;;;1.47;1.37;;;;;;;;;;6194658;23;20375;-86
2024/01/27 03:14:49;;;;;;;2.00;1.90;;;;;;;;;;6193817;23;20716;-86
2024/01/27 03:17:15;;;;;;;8.33;2.13;;;;;;;;;;6198043;23;20387;-86
2024/01/27 03:19:43;;;;;;;2.53;1.20;;;;;;;;;;6193827;23;20446;-86
2024/01/27 03:22:09;;;;;;;1.50;1.40;;;;;;;;;;6195350;23;20379;-87
2024/01/27 03:24:36;;;;;;;3.13;1.53;;;;;;;;;;6193527;23;20461;-86
2024/01/27 03:27:02;;;;;;;3.23;1.90;;;;;;;;;;6194775;23;20375;-85
2024/01/27 03:29:28;;;;;;;3.40;1.90;;;;;;;;;;6218792;23;20410;-86
2024/01/27 03:31:54;;;;;;;4.60;2.00;;;;;;;;;;6195203;23;20410;-86
2024/01/27 03:34:24;;;;;;;1.40;1.30;;;;;;;;;;6193416;23;20371;-86
2024/01/27 03:36:51;;;;;;;2.27;1.80;;;;;;;;;;6195976;23;20430;-85
2024/01/27 03:39:18;;;;;;;2.00;1.60;;;;;;;;;;6219168;23;20838;-85
2024/01/27 03:41:44;;;;;;;7.77;2.33;;;;;;;;;;6197014;23;20378;-86
2024/01/27 03:44:10;;;;;;;1.53;1.43;;;;;;;;;;6193006;23;20383;-87
2024/01/27 03:46:38;;;;;;;2.07;1.87;;;;;;;;;;6194894;23;20375;-86
2024/01/27 03:49:05;;;;;;;3.20;2.00;;;;;;;;;;6192856;23;20453;-86
2024/01/27 03:51:31;;;;;;;1.73;1.63;;;;;;;;;;6224146;23;20363;-86
2024/01/27 03:53:57;;;;;;;2.17;1.60;;;;;;;;;;6193482;23;20469;-86
2024/01/27 03:56:24;;;;;;;2.87;1.43;;;;;;;;;;6221758;23;20364;-86
2024/01/27 03:58:50;;;;;;;4.93;2.80;;;;;;;;;;6192976;23;20379;-87
2024/01/27 04:01:16;;;;;;;4.93;2.13;;;;;;;;;;6196777;23;20383;-87
2024/01/27 04:03:42;;;;;;;2.10;1.53;;;;;;;;;;6193120;23;20478;-87
2024/01/27 04:06:09;;;;;;;1.77;1.50;;;;;;;;;;6199579;23;20394;-86
2024/01/27 04:08:35;;;;;;;3.43;1.67;;;;;;;;;;6132128;23;20388;-86
2024/01/27 04:11:01;;;;;;;2.40;1.90;;;;;;;;;;6108940;23;20389;-87
2024/01/27 04:13:27;;;;;;;1.57;1.47;;;;;;;;;;6107205;23;20456;-86
2024/01/27 04:15:53;;;;;;;4.40;1.67;;;;;;;;;;6107860;23;20531;-88
2024/01/27 04:18:20;;;;;;;2.33;2.13;;;;;;;;;;6132222;23;20396;-86
2024/01/27 04:20:46;;;;;;;2.43;1.80;;;;;;;;;;6109616;23;20381;-86
2024/01/27 04:23:12;;;;;;;3.67;2.80;;;;;;;;;;6109599;23;20429;-86
2024/01/27 04:25:38;;;;;;;1.60;1.33;;;;;;;;;;6109616;23;20381;-86
2024/01/27 04:28:05;;;;;;;5.00;2.10;;;;;;;;;;6107347;23;20381;-85
2024/01/27 04:30:31;;;;;;;4.20;1.90;;;;;;;;;;6110720;23;20429;-86
2024/01/27 04:32:57;;;;;;;4.00;1.67;;;;;;;;;;6109009;23;20377;-87
2024/01/27 04:35:25;;;;;;;2.47;1.70;;;;;;;;;;6109479;23;20377;-86
2024/01/27 04:37:51;;;;;;;1.67;1.30;;;;;;;;;;6133720;23;20461;-86
2024/01/27 04:40:18;;;;;;;1.93;1.83;;;;;;;;;;6134694;23;20388;-86
2024/01/27 04:42:44;;;;;;;1.70;1.60;;;;;;;;;;6133378;23;20385;-86
2024/01/27 04:45:10;;;;;;;3.87;2.23;;;;;;;;;;6106606;23;20385;-86
2024/01/27 04:47:36;;;;;;;2.23;1.40;;;;;;;;;;6107113;23;20388;-86
2024/01/27 04:50:03;;;;;;;3.43;3.10;;;;;;;;;;6107410;23;20435;-87
2024/01/27 04:52:29;;;;;;;2.37;1.60;;;;;;;;;;6141155;23;20379;-86
2024/01/27 04:54:55;;;;;;;2.27;2.17;;;;;;;;;;6192680;23;20389;-83
2024/01/27 04:57:21;;;;;;;2.50;1.93;;;;;;;;;;6195197;23;20415;-89
2024/01/27 04:59:47;;;;;;;3.30;1.97;;;;;;;;;;6191814;23;20851;-84
2024/01/27 05:02:13;;;;;;;6.93;1.90;;;;;;;;;;6135067;23;20373;-85
2024/01/27 05:04:39;;;;;;;5.40;2.47;;;;;;;;;;6130287;23;20379;-85
2024/01/27 05:07:05;;;;;;;3.63;2.00;;;;;;;;;;6104627;23;20432;-84
2024/01/27 05:09:31;;;;;;;2.07;1.87;;;;;;;;;;6105967;23;20428;-85
2024/01/27 05:11:57;;;;;;;4.20;2.40;;;;;;;;;;6111002;23;20437;-85
2024/01/27 05:14:23;;;;;;;3.80;2.47;;;;;;;;;;6105323;23;20385;-85
2024/01/27 05:16:49;;;;;;;5.30;2.10;;;;;;;;;;6106835;23;20396;-85
2024/01/27 05:19:16;;;;;;;4.30;1.73;;;;;;;;;;6107232;23;20377;-84
2024/01/27 05:21:42;;;;;;;2.77;2.33;;;;;;;;;;6108747;23;20413;-84
2024/01/27 05:24:08;;;;;;;6.93;2.50;;;;;;;;;;6106508;23;20385;-85
2024/01/27 05:26:34;;;;;;;1.40;1.23;;;;;;;;;;6107941;23;20409;-85
2024/01/27 05:29:00;;;;;;;1.53;1.40;;;;;;;;;;6102152;23;20457;-84
2024/01/27 05:31:27;;;;;;;3.13;1.87;;;;;;;;;;6128369;23;20385;-85
2024/01/27 05:33:53;;;;;;;1.60;1.50;;;;;;;;;;6171661;23;20926;-85
2024/01/27 05:36:19;;;;;;;7.53;1.70;;;;;;;;;;6161324;23;20462;-86
2024/01/27 05:38:45;;;;;;;3.50;2.23;;;;;;;;;;6185452;23;20372;-85
2024/01/27 05:41:11;;;;;;;4.00;2.13;;;;;;;;;;6187374;23;20372;-86
2024/01/27 05:43:37;;;;;;;2.10;1.73;;;;;;;;;;6163488;23;20882;-86
2024/01/27 05:46:04;;;;;;;2.97;2.40;;;;;;;;;;6186218;23;20371;-84
2024/01/27 05:48:30;;;;;;;2.63;2.30;;;;;;;;;;6162681;23;20388;-85
2024/01/27 05:50:59;;;;;;;2.30;2.10;;;;;;;;;;6187003;23;20375;-85
2024/01/27 05:53:25;;;;;;;2.10;1.70;;;;;;;;;;6163720;23;20380;-85
2024/01/27 05:55:52;;;;;;;5.20;2.03;;;;;;;;;;6163165;23;20384;-86
2024/01/27 05:58:21;;;;;;;4.57;1.93;;;;;;;;;;6163857;23;20475;-86
2024/01/27 06:00:47;;;;;;;1.70;1.60;;;;;;;;;;6185798;23;20763;-88
2024/01/27 06:03:13;;;;;;;4.10;2.33;;;;;;;;;;6195667;23;20379;-86
2024/01/27 06:05:39;;;;;;;2.90;1.80;;;;;;;;;;6190994;23;20850;-87
2024/01/27 06:08:07;;;;;;;2.80;1.60;;;;;;;;;;6216890;23;20367;-86
2024/01/27 06:10:33;;;;;;;2.63;2.00;;;;;;;;;;6189792;23;20422;-84
2024/01/27 06:12:59;;;;;;;4.20;2.30;;;;;;;;;;6194237;23;20398;-86
2024/01/27 06:15:25;;;;;;;1.40;1.30;;;;;;;;;;6192516;23;20873;-86
2024/01/27 06:17:51;;;;;;;13.17;3.83;;;;;;;;;;6220001;23;20359;-84
2024/01/27 06:20:18;;;;;;;3.00;2.07;;;;;;;;;;6192759;23;20383;-86
2024/01/27 06:22:44;;;;;;;2.10;2.00;;;;;;;;;;6194625;23;20376;-85
2024/01/27 06:25:13;;;;;;;2.00;1.80;;;;;;;;;;6190613;23;21263;-85
2024/01/27 06:27:41;;;;;;;5.27;2.40;;;;;;;;;;6196218;23;20397;-84
2024/01/27 06:30:08;;;;;;;5.23;2.73;;;;;;;;;;6154742;23;20484;-86
2024/01/27 06:32:34;;;;;;;2.40;2.17;;;;;;;;;;6127787;23;20378;-85
2024/01/27 06:35:00;;;;;;;15.27;3.10;;;;;;;;;;6099843;23;20410;-86
2024/01/27 06:37:26;;;;;;;5.10;2.50;;;;;;;;;;6100551;23;20728;-86
2024/01/27 06:39:52;;;;;;;2.03;1.93;;;;;;;;;;6125303;23;20414;-86
2024/01/27 06:42:18;;;;;;;3.93;2.03;;;;;;;;;;6102425;23;20397;-86
2024/01/27 06:44:44;;;;;;;7.90;2.47;;;;;;;;;;6102715;23;20393;-86
2024/01/27 06:47:11;;;;;;;1.93;1.80;;;;;;;;;;6103999;23;20452;-87
2024/01/27 06:49:37;;;;;;;2.60;2.33;;;;;;;;;;6103135;23;20523;-87
2024/01/27 06:52:03;;;;;;;3.27;2.30;;;;;;;;;;6104465;23;20381;-87
2024/01/27 06:54:29;;;;;;;5.23;2.67;;;;;;;;;;6105787;23;20378;-87
2024/01/27 06:56:55;;;;;;;3.83;2.57;;;;;;;;;;6106680;23;20374;-87
2024/01/27 06:59:21;;;;;;;3.33;2.07;;;;;;;;;;6103081;23;20392;-87
2024/01/27 07:01:50;;;;;;;4.23;3.10;;;;;;;;;;6150823;23;20383;-87
2024/01/27 07:04:17;;;;;;;1.87;1.77;;;;;;;;;;6136057;23;20388;-88
2024/01/27 07:06:43;;;;;;;4.03;2.57;;;;;;;;;;6137574;23;20416;-87
2024/01/27 07:09:09;;;;;;;3.13;2.33;;;;;;;;;;6138754;23;20445;-88
2024/01/27 07:11:35;;;;;;;4.50;1.63;;;;;;;;;;6218006;23;20364;-86
2024/01/27 07:14:01;;;;;;;7.13;3.60;;;;;;;;;;6215796;23;20375;-86
2024/01/27 07:16:27;;;;;;;5.70;3.23;;;;;;;;;;6193052;23;20384;-88
2024/01/27 07:18:53;;;;;;;1.90;1.80;;;;;;;;;;6217600;23;20429;-86
2024/01/27 07:21:19;;;;;;;5.43;2.13;;;;;;;;;;6195138;23;20407;-86
2024/01/27 07:23:45;;;;;;;4.50;2.20;;;;;;;;;;6218372;23;20367;-86
2024/01/27 07:26:11;;;;;;;3.10;2.40;;;;;;;;;;6194675;23;20385;-87
2024/01/27 07:28:37;;;;;;;2.10;2.00;;;;;;;;;;6191555;23;20387;-85
2024/01/27 07:31:04;;;;;;;4.77;3.33;;;;;;;;;;6194284;23;20391;-87
2024/01/27 07:33:29;;;;;;;4.33;2.03;;;;;;;;;;6194327;23;20866;-87
2024/01/27 07:35:55;;;;;;;2.73;2.53;;;;;;;;;;6220080;23;20410;-88
2024/01/27 07:38:21;;;;;;;4.10;2.30;;;;;;;;;;6195613;23;20746;-88
2024/01/27 07:40:47;;;;;;;7.20;3.20;;;;;;;;;;6193987;23;20387;-87
2024/01/27 07:43:13;;;;;;;5.40;3.63;;;;;;;;;;6223178;23;20423;-88
2024/01/27 07:45:40;;;;;;;6.70;3.87;;;;;;;;;;6193944;23;20379;-88
2024/01/27 07:48:07;;;;;;;4.80;4.10;;;;;;;;;;6192903;23;20438;-88
2024/01/27 07:50:33;;;;;;;3.90;3.20;;;;;;;;;;6192134;23;20861;-87
2024/01/27 07:52:59;;;;;;;5.13;3.13;;;;;;;;;;6195586;23;20462;-88
2024/01/27 07:55:25;;;;;;;11.03;2.80;;;;;;;;;;6191392;23;20386;-87
2024/01/27 07:57:51;;;;;;;4.70;2.47;;;;;;;;;;6194493;23;20383;-87
2024/01/27 08:00:17;;;;;;;4.20;2.23;;;;;;;;;;6192845;23;20866;-87
2024/01/27 08:02:43;;;;;;;2.50;2.30;;;;;;;;;;6199301;23;20383;-87
2024/01/27 08:05:09;;;;;;;5.63;3.40;;;;;;;;;;6197897;23;20441;-86
2024/01/27 08:07:35;;;;;;;17.37;3.17;;;;;;;;;;6198348;23;20422;-87
2024/01/27 08:10:01;;;;;;;2.90;2.70;;;;;;;;;;6195595;23;20886;-87
2024/01/27 08:12:27;;;;;;;3.50;3.30;;;;;;;;;;6197130;23;20406;-88
2024/01/27 08:14:53;;;;;;;2.50;2.13;;;;;;;;;;6192013;23;20386;-86
2024/01/27 08:17:19;;;;;;;2.80;2.60;;;;;;;;;;6194683;23;20386;-87
2024/01/27 08:19:45;;;;;;;3.83;3.50;;;;;;;;;;6219331;23;20371;-88
2024/01/27 08:22:11;;;;;;;4.23;3.83;;;;;;;;;;6193903;23;20392;-88
2024/01/27 08:24:37;;;;;;;3.20;2.70;;;;;;;;;;6193823;23;20379;-88
2024/01/27 08:27:03;;;;;;;3.13;2.87;;;;;;;;;;6193627;23;20430;-87
2024/01/27 08:29:29;;;;;;;5.17;4.40;;;;;;;;;;6219274;23;20395;-87
2024/01/27 08:31:55;;;;;;;4.97;4.27;;;;;;;;;;6219098;23;20367;-87
2024/01/27 08:34:21;;;;;;;6.80;5.20;;;;;;;;;;6194193;23;20494;-87
2024/01/27 08:36:49;;;;;;;5.00;4.43;;;;;;;;;;6193349;23;20890;-87
2024/01/27 08:39:15;;;;;;;11.50;4.00;;;;;;;;;;6196269;23;20448;-86
2024/01/27 08:41:40;;;;;;;5.50;4.10;;;;;;;;;;6160953;23;20462;-87
2024/01/27 08:44:06;;;;;;;7.53;2.73;;;;;;;;;;6138906;23;20692;-87
2024/01/27 08:46:33;;;;;;;3.77;2.70;;;;;;;;;;6136746;23;20395;-86
2024/01/27 08:48:59;;;;;;;4.00;2.77;;;;;;;;;;6163139;23;20495;-87
2024/01/27 08:51:25;;;;;;;3.60;3.00;;;;;;;;;;6138377;23;20384;-87
2024/01/27 08:53:51;;;;;;;3.40;2.30;;;;;;;;;;6138529;23;20508;-88
2024/01/27 08:56:20;;;;;;;4.43;3.13;;;;;;;;;;6165506;23;20761;-86
2024/01/27 08:58:49;;;;;;;2.83;2.57;;;;;;;;;;6140547;23;20384;-86
2024/01/27 09:01:18;;;;;;;5.00;4.23;;;;;;;;;;6166695;23;20407;-86
2024/01/27 09:03:44;;;;;;;4.67;2.03;;;;;;;;;;6135983;23;20535;-87
2024/01/27 09:06:11;;;;;;;5.30;2.83;;;;;;;;;;6137892;23;21114;-87
2024/01/27 09:08:37;;;;;;;3.87;3.40;;;;;;;;;;6136151;23;20384;-88
2024/01/27 09:11:03;;;;;;;6.67;3.13;;;;;;;;;;6141152;23;21054;-85
2024/01/27 09:13:29;;;;;;;10.30;3.40;;;;;;;;;;6163127;23;20378;-87
2024/01/27 09:15:55;;;;;;;5.03;3.17;;;;;;;;;;6192844;23;20864;-86
2024/01/27 09:18:22;;;;;;;7.90;3.37;;;;;;;;;;6191664;23;20356;-87
2024/01/27 09:20:48;;;;;;;3.90;3.60;;;;;;;;;;6219240;22;20378;-87
2024/01/27 09:23:14;;;;;;;5.33;3.20;;;;;;;;;;6216237;23;20367;-86
2024/01/27 09:25:40;;;;;;;4.80;3.67;;;;;;;;;;6185959;23;20957;-88
2024/01/27 09:28:06;;;;;;;4.80;3.03;;;;;;;;;;6159687;23;20383;-86
2024/01/27 09:30:35;;;;;;;4.17;3.00;;;;;;;;;;6165564;23;20433;-86
2024/01/27 09:33:01;;;;;;;3.73;3.37;;;;;;;;;;6161927;23;20405;-87
2024/01/27 09:35:27;;;;;;;6.30;4.07;;;;;;;;;;6162397;23;20426;-87
2024/01/27 09:37:53;;;;;;;14.87;6.00;;;;;;;;;;6164917;23;20388;-87
2024/01/27 09:40:21;;;;;;;6.30;4.33;;;;;;;;;;6162328;23;20375;-89
2024/01/27 09:42:53;;;;;;;4.10;3.63;;;;;;;;;;6166583;23;20368;-87
2024/01/27 09:45:21;;;;;;;5.10;4.33;;;;;;;;;;6161878;23;20887;-87
2024/01/27 09:47:47;;;;;;;10.63;4.03;;;;;;;;;;6163188;23;20384;-87
2024/01/27 09:50:13;;;;;;;7.47;4.10;;;;;;;;;;6162283;23;21043;-87
2024/01/27 09:52:39;;;;;;;4.93;3.40;;;;;;;;;;6161353;23;20383;-85
2024/01/27 09:55:05;;;;;;;5.23;3.50;;;;;;;;;;6164318;23;20423;-86
2024/01/27 09:57:31;;;;;;;21.70;5.10;;;;;;;;;;6190023;23;20773;-86
2024/01/27 09:59:57;;;;;;;6.70;4.50;;;;;;;;;;6218203;23;20453;-86
2024/01/27 10:02:23;;;;;;;2.97;2.60;;;;;;;;;;6221647;23;20371;-87
2024/01/27 10:04:49;;;;;;;6.00;3.60;;;;;;;;;;6192278;23;20390;-85
2024/01/27 10:07:15;;;;;;;8.67;3.70;;;;;;;;;;6195833;23;20391;-86
2024/01/27 10:09:42;;;;;;;3.17;2.77;;;;;;;;;;6191909;23;20454;-85
2024/01/27 10:12:09;;;;;;;4.37;3.33;;;;;;;;;;6195758;23;20386;-86
2024/01/27 10:14:39;;;;;;;4.50;3.00;;;;;;;;;;6190477;23;20425;-86
2024/01/27 10:17:05;;;;;;;3.20;2.70;;;;;;;;;;6194042;23;20390;-86
2024/01/27 10:19:31;;;;;;;7.93;3.60;;;;;;;;;;6192807;23;20383;-85
2024/01/27 10:22:01;;;;;;;7.20;2.80;;;;;;;;;;6195963;23;20375;-85
2024/01/27 10:24:27;;;;;;;4.40;2.80;;;;;;;;;;6192499;23;20394;-85
2024/01/27 10:26:59;;;;;;;3.37;3.07;;;;;;;;;;6195874;23;20453;-86
2024/01/27 10:29:25;;;;;;;5.70;3.50;;;;;;;;;;6195388;23;20422;-85
2024/01/27 10:31:51;;;;;;;2.30;2.10;;;;;;;;;;6193964;23;20459;-85
2024/01/27 10:34:20;;;;;;;4.50;2.90;;;;;;;;;;6218833;23;20367;-85
2024/01/27 10:36:46;;;;;;;7.50;3.93;;;;;;;;;;6194686;23;20394;-84
2024/01/27 10:39:16;;;;;;;9.27;3.00;;;;;;;;;;6196805;23;20387;-86
2024/01/27 10:41:43;;;;;;;4.17;2.67;;;;;;;;;;6197646;23;20386;-85
2024/01/27 10:44:10;;;;;;;6.73;2.40;;;;;;;;;;6195502;23;20375;-86
2024/01/27 10:46:36;;;;;;;6.00;2.77;;;;;;;;;;6220166;23;20417;-87
2024/01/27 10:49:02;;;;;;;3.73;2.90;;;;;;;;;;6193879;23;20485;-85
2024/01/27 10:51:38;;;;;;;2.47;2.13;;;;;;;;;;6192297;23;20379;-85
2024/01/27 10:54:06;;;;;;;6.50;3.30;;;;;;;;;;6196087;23;20381;-84
2024/01/27 10:56:33;;;;;;;4.03;3.30;;;;;;;;;;6192380;23;20498;-87
2024/01/27 10:58:59;;;;;;;3.43;2.63;;;;;;;;;;6196818;23;20738;-87
2024/01/27 11:01:25;;;;;;;10.40;2.93;;;;;;;;;;6194250;23;20383;-87
2024/01/27 11:03:52;;;;;;;11.47;4.57;;;;;;;;;;6197923;23;20431;-86
2024/01/27 11:06:18;;;;;;;8.70;2.80;;;;;;;;;;6191781;23;20375;-86
2024/01/27 11:08:44;;;;;;;11.40;3.83;;;;;;;;;;6194177;23;20375;-87
2024/01/27 11:11:10;;;;;;;2.93;2.73;;;;;;;;;;6191181;23;20469;-86
2024/01/27 11:13:36;;;;;;;3.60;2.90;;;;;;;;;;6198712;23;20467;-85
2024/01/27 11:16:02;;;;;;;8.33;3.23;;;;;;;;;;6216776;23;20399;-86
2024/01/27 11:18:29;;;;;;;3.40;3.10;;;;;;;;;;6195229;23;20426;-87
2024/01/27 11:20:55;;;;;;;4.60;3.40;;;;;;;;;;6196757;23;20405;-87
2024/01/27 11:23:31;;;;;;;5.60;3.07;;;;;;;;;;6193944;23;20375;-86
2024/01/27 11:26:06;;;;;;;4.67;3.00;;;;;;;;;;6195736;23;20672;-86
2024/01/27 11:28:32;;;;;;;8.60;3.70;;;;;;;;;;6193316;23;20414;-87
2024/01/27 11:30:58;;;;;;;3.20;2.60;;;;;;;;;;6198668;23;20375;-86
2024/01/27 11:33:27;;;;;;;5.17;3.00;;;;;;;;;;6217514;23;20442;-87
2024/01/27 11:36:04;;;;;;;14.10;4.23;;;;;;;;;;6196397;23;20395;-87
2024/01/27 11:38:30;;;;;;;6.80;2.73;;;;;;;;;;6193138;23;20402;-85
2024/01/27 11:40:56;;;;;;;3.80;2.60;;;;;;;;;;6194763;23;20387;-86
2024/01/27 11:43:22;;;;;;;4.70;3.03;;;;;;;;;;6219848;23;20367;-85
2024/01/27 11:46:03;;;;;;;7.90;3.97;;;;;;;;;;6196545;23;20425;-86
2024/01/27 11:48:29;;;;;;;4.33;2.80;;;;;;;;;;6192574;23;20367;-86
2024/01/27 11:51:08;;;;;;;5.43;3.60;;;;;;;;;;6189229;23;20840;-87
2024/01/27 11:53:34;;;;;;;5.60;3.00;;;;;;;;;;6187742;23;20871;-86
2024/01/27 11:56:01;;;;;;;4.90;2.83;;;;;;;;;;6189732;23;20378;-87
2024/01/27 11:58:27;;;;;;;3.93;2.87;;;;;;;;;;6215200;23;20363;-87
2024/01/27 12:00:53;;;;;;;8.73;2.30;;;;;;;;;;6193502;23;20375;-88
2024/01/27 12:03:20;;;;;;;11.17;3.80;;;;;;;;;;6191368;23;20380;-85
2024/01/27 12:05:47;;;;;;;5.53;3.27;;;;;;;;;;6221860;23;20371;-86
2024/01/27 12:08:13;;;;;;;4.63;2.87;;;;;;;;;;6219301;23;20367;-87
2024/01/27 12:10:39;;;;;;;3.83;3.13;;;;;;;;;;6195821;23;20445;-85
2024/01/27 12:13:05;;;;;;;7.27;3.20;;;;;;;;;;6223223;23;20360;-87
2024/01/27 12:15:31;;;;;;;4.40;2.90;;;;;;;;;;6217733;23;20367;-87
2024/01/27 12:17:57;;;;;;;7.20;3.43;;;;;;;;;;6195752;23;20842;-86
2024/01/27 12:20:23;;;;;;;4.97;3.30;;;;;;;;;;6191712;23;20386;-86
2024/01/27 12:23:08;;;;;;;9.33;4.60;;;;;;;;;;6197273;23;20383;-86
2024/01/27 12:25:34;;;;;;;7.10;4.20;;;;;;;;;;6197026;23;21033;-86
2024/01/27 12:28:04;;;;;;;3.10;2.90;;;;;;;;;;6194014;23;20762;-86
2024/01/27 12:30:32;;;;;;;3.57;2.83;;;;;;;;;;6196128;23;20418;-87
2024/01/27 12:32:58;;;;;;;7.90;3.07;;;;;;;;;;6192508;23;20586;-86
2024/01/27 12:35:26;;;;;;;6.57;4.40;;;;;;;;;;6222342;23;20367;-87
2024/01/27 12:37:53;;;;;;;3.40;3.00;;;;;;;;;;6191490;23;20877;-87
2024/01/27 12:40:20;;;;;;;5.60;3.77;;;;;;;;;;6221700;23;20454;-87
2024/01/27 12:42:46;;;;;;;5.77;3.60;;;;;;;;;;6193097;23;20389;-85
2024/01/27 12:45:12;;;;;;;10.47;3.27;;;;;;;;;;6196499;23;20410;-88
2024/01/27 12:47:38;;;;;;;7.20;3.40;;;;;;;;;;6194764;23;20383;-87
2024/01/27 12:50:04;;;;;;;8.20;3.60;;;;;;;;;;6195193;23;20419;-87
2024/01/27 12:52:30;;;;;;;5.40;2.63;;;;;;;;;;6193214;23;20386;-86
2024/01/27 12:54:56;;;;;;;6.27;2.70;;;;;;;;;;6193330;23;20914;-88
2024/01/27 12:57:22;;;;;;;4.40;2.90;;;;;;;;;;6217986;23;20371;-86
2024/01/27 12:59:48;;;;;;;3.17;2.50;;;;;;;;;;6216723;23;20375;-88
2024/01/27 13:02:15;;;;;;;6.00;3.30;;;;;;;;;;6193024;23;20395;-87
2024/01/27 13:04:41;;;;;;;4.40;3.03;;;;;;;;;;6191817;23;20375;-86
2024/01/27 13:07:07;;;;;;;4.13;2.07;;;;;;;;;;6196801;23;20383;-86
2024/01/27 13:09:33;;;;;;;8.50;3.10;;;;;;;;;;6190827;23;20814;-86
2024/01/27 13:11:59;;;;;;;4.50;2.30;;;;;;;;;;6194125;23;20410;-86
2024/01/27 13:14:25;;;;;;;5.70;3.50;;;;;;;;;;6191173;23;20375;-87
2024/01/27 13:16:53;;;;;;;5.13;2.83;;;;;;;;;;6219160;23;20391;-86
2024/01/27 13:19:19;;;;;;;5.73;2.67;;;;;;;;;;6191733;23;20379;-87
2024/01/27 13:21:45;;;;;;;3.03;2.83;;;;;;;;;;6220429;23;20409;-87
2024/01/27 13:24:12;;;;;;;8.30;3.90;;;;;;;;;;6197631;23;20862;-89
2024/01/27 13:26:38;;;;;;;6.67;2.93;;;;;;;;;;6193660;23;20415;-90
2024/01/27 13:29:04;;;;;;;3.77;2.10;;;;;;;;;;6196624;23;20438;-87
2024/01/27 13:31:30;;;;;;;4.13;2.37;;;;;;;;;;6216588;23;20367;-88
2024/01/27 13:33:57;;;;;;;7.27;3.67;;;;;;;;;;6220586;23;20365;-89
2024/01/27 13:36:25;;;;;;;3.90;1.87;;;;;;;;;;6190837;23;20399;-88
2024/01/27 13:38:51;;;;;;;2.90;2.03;;;;;;;;;;6217718;23;20363;-87
2024/01/27 13:41:21;;;;;;;6.80;2.30;;;;;;;;;;6190181;23;20371;-89
2024/01/27 13:43:47;;;;;;;4.73;2.30;;;;;;;;;;6196390;23;20425;-87
2024/01/27 13:46:13;;;;;;;2.90;2.13;;;;;;;;;;6193139;23;20383;-87
2024/01/27 13:48:39;;;;;;;4.47;2.33;;;;;;;;;;6196631;23;20376;-87
2024/01/27 13:51:05;;;;;;;3.90;2.40;;;;;;;;;;6192974;23;20406;-87
2024/01/27 13:53:34;;;;;;;2.23;1.87;;;;;;;;;;6194645;23;20443;-88
2024/01/27 13:56:04;;;;;;;4.13;2.47;;;;;;;;;;6193517;23;20382;-87
2024/01/27 13:58:30;;;;;;;3.77;2.23;;;;;;;;;;6190794;23;20368;-87
2024/01/27 14:00:56;;;;;;;4.47;3.00;;;;;;;;;;6216371;23;20778;-86
2024/01/27 14:03:23;;;;;;;7.73;2.20;;;;;;;;;;6191922;23;20387;-87
2024/01/27 14:05:49;;;;;;;3.47;1.90;;;;;;;;;;6191771;23;20503;-89
2024/01/27 14:08:15;;;;;;;2.57;2.40;;;;;;;;;;6192385;23;20383;-87
2024/01/27 14:10:43;;;;;;;3.70;2.20;;;;;;;;;;6196300;23;20451;-87
2024/01/27 14:13:09;;;;;;;5.87;2.60;;;;;;;;;;6194327;23;20363;-87
2024/01/27 14:15:36;;;;;;;4.70;1.90;;;;;;;;;;6219659;23;20367;-86
2024/01/27 14:18:04;;;;;;;2.90;2.60;;;;;;;;;;6195808;23;20375;-86
2024/01/27 14:20:30;;;;;;;5.73;2.03;;;;;;;;;;6216043;23;20436;-86
2024/01/27 14:22:57;;;;;;;2.07;1.77;;;;;;;;;;6220143;23;20368;-86
2024/01/27 14:25:23;;;;;;;3.17;1.93;;;;;;;;;;6221601;23;20367;-87
2024/01/27 14:27:49;;;;;;;5.10;2.17;;;;;;;;;;6194888;23;20387;-87
2024/01/27 14:30:15;;;;;;;8.47;6.90;;;;;;;;;;6220645;23;20478;-87
2024/01/27 14:32:41;;;;;;;4.90;2.47;;;;;;;;;;6192984;23;20378;-87
2024/01/27 14:35:08;;;;;;;3.80;2.33;;;;;;;;;;6195878;23;20371;-87
2024/01/27 14:37:34;;;;;;;5.30;2.20;;;;;;;;;;6193603;23;20393;-87
2024/01/27 14:40:00;;;;;;;12.70;2.70;;;;;;;;;;6196190;23;20371;-86